Summit Point, West Virginia
Current Conditions -  °F | °C
As of 2:53 AM on Sunday 26 Oct 2014 (Local Time) from KMRB Reporting Station
Few Clouds Few Clouds  
Wind Chill: 63°   Ceiling: Unl
Heat Index: 63°   Visibility: 10mi
Dew Point: 34°   Wind: 21mph
Humidity: 34%   Direction: 310°NW
Pressure: 29.72"   Gusts: 28mph
Location:  39.25°N, 77.96°W
Report Text: KMRB 260653Z AUTO 31018G24KT 10SM FEW060 17/01 A2972 RMK AO2 PK WND 28026/0614 SLP060 T01720011 TSNO
Loading
Personal Weather Stations






























Interactive Weather Map
Tropical Storm Tracking
New forecast layout! Learn more

10-Day Weather Forecast

Advertisements
Track Severe Weather on mobile